sensor_id;sensor_type;location;lat;lon;timestamp;pressure;altitude;pressure_sealevel;temperature;humidity
76632;BME280;65526;48.578;-4.520;2023-08-30T00:00:49;101097.78;;;15.47;100.00
76632;BME280;65526;48.578;-4.520;2023-08-30T00:03:15;100879.19;;;14.19;100.00
76632;BME280;65526;48.578;-4.520;2023-08-30T00:05:42;100966.63;;;14.58;100.00
76632;BME280;65526;48.578;-4.520;2023-08-30T00:08:09;101055.28;;;15.41;100.00
76632;BME280;65526;48.578;-4.520;2023-08-30T00:10:35;100885.53;;;13.97;100.00
76632;BME280;65526;48.578;-4.520;2023-08-30T00:13:03;100431.84;;;11.23;100.00
76632;BME280;65526;48.578;-4.520;2023-08-30T00:15:30;100578.09;;;12.41;100.00
76632;BME280;65526;48.578;-4.520;2023-08-30T00:17:57;101126.72;;;15.32;100.00
76632;BME280;65526;48.578;-4.520;2023-08-30T00:20:24;101043.88;;;15.31;100.00
76632;BME280;65526;48.578;-4.520;2023-08-30T00:22:50;101099.09;;;15.30;100.00
76632;BME280;65526;48.578;-4.520;2023-08-30T00:25:17;100329.28;;;10.86;100.00
76632;BME280;65526;48.578;-4.520;2023-08-30T00:27:43;100651.69;;;12.36;100.00
76632;BME280;65526;48.578;-4.520;2023-08-30T00:30:11;101030.34;;;15.33;100.00
76632;BME280;65526;48.578;-4.520;2023-08-30T00:32:38;101045.59;;;15.35;100.00
76632;BME280;65526;48.578;-4.520;2023-08-30T00:35:05;101016.81;;;15.38;100.00
76632;BME280;65526;48.578;-4.520;2023-08-30T00:37:31;101121.69;;;15.41;100.00
76632;BME280;65526;48.578;-4.520;2023-08-30T00:39:58;101008.84;;;15.40;100.00
76632;BME280;65526;48.578;-4.520;2023-08-30T00:42:27;100637.25;;;12.69;100.00
76632;BME280;65526;48.578;-4.520;2023-08-30T00:44:53;101016.06;;;15.41;100.00
76632;BME280;65526;48.578;-4.520;2023-08-30T00:47:21;101060.91;;;15.41;100.00
76632;BME280;65526;48.578;-4.520;2023-08-30T00:49:47;100403.50;;;11.17;100.00
76632;BME280;65526;48.578;-4.520;2023-08-30T00:52:14;100637.25;;;12.69;100.00
76632;BME280;65526;48.578;-4.520;2023-08-30T00:54:41;100866.97;;;14.08;100.00
76632;BME280;65526;48.578;-4.520;2023-08-30T00:57:08;100298.47;;;10.76;100.00
76632;BME280;65526;48.578;-4.520;2023-08-30T00:59:35;101048.69;;;15.30;100.00
76632;BME280;65526;48.578;-4.520;2023-08-30T01:02:04;100638.22;;;12.57;100.00
76632;BME280;65526;48.578;-4.520;2023-08-30T01:04:33;101015.75;;;15.24;100.00
76632;BME280;65526;48.578;-4.520;2023-08-30T01:06:59;101046.53;;;15.20;100.00
76632;BME280;65526;48.578;-4.520;2023-08-30T01:09:26;100156.91;;;9.81;100.00
76632;BME280;65526;48.578;-4.520;2023-08-30T01:12:04;100882.97;;;14.30;100.00
76632;BME280;65526;48.578;-4.520;2023-08-30T01:15:01;100391.00;;;10.76;100.00
76632;BME280;65526;48.578;-4.520;2023-08-30T01:17:32;100766.81;;;13.26;100.00
76632;BME280;65526;48.578;-4.520;2023-08-30T01:20:06;100544.94;;;11.97;100.00
76632;BME280;65526;48.578;-4.520;2023-08-30T01:22:57;100519.72;;;11.90;100.00
76632;BME280;65526;48.578;-4.520;2023-08-30T01:25:53;100985.03;;;14.82;100.00
76632;BME280;65526;48.578;-4.520;2023-08-30T01:28:24;100575.72;;;12.04;100.00
76632;BME280;65526;48.578;-4.520;2023-08-30T01:30:53;100753.94;;;13.21;100.00
76632;BME280;65526;48.578;-4.520;2023-08-30T01:33:24;101049.34;;;14.78;100.00
76632;BME280;65526;48.578;-4.520;2023-08-30T01:35:55;100347.75;;;10.79;100.00
76632;BME280;65526;48.578;-4.520;2023-08-30T01:38:23;101068.88;;;14.75;100.00
76632;BME280;65526;48.578;-4.520;2023-08-30T01:40:51;100980.13;;;14.75;100.00
76632;BME280;65526;48.578;-4.520;2023-08-30T01:43:18;100720.22;;;12.91;100.00
76632;BME280;65526;48.578;-4.520;2023-08-30T01:45:44;100976.53;;;14.75;100.00
76632;BME280;65526;48.578;-4.520;2023-08-30T01:48:13;100801.41;;;13.60;100.00
76632;BME280;65526;48.578;-4.520;2023-08-30T01:50:43;101026.91;;;14.75;100.00
76632;BME280;65526;48.578;-4.520;2023-08-30T01:53:13;100737.31;;;13.09;100.00
76632;BME280;65526;48.578;-4.520;2023-08-30T01:55:41;100508.31;;;11.79;100.00
76632;BME280;65526;48.578;-4.520;2023-08-30T01:58:08;100503.66;;;11.83;100.00
76632;BME280;65526;48.578;-4.520;2023-08-30T02:00:36;100476.00;;;11.59;100.00
76632;BME280;65526;48.578;-4.520;2023-08-30T02:03:10;100714.59;;;13.26;100.00
76632;BME280;65526;48.578;-4.520;2023-08-30T02:05:48;100752.75;;;13.03;100.00
76632;BME280;65526;48.578;-4.520;2023-08-30T02:08:19;100977.91;;;14.84;100.00
76632;BME280;65526;48.578;-4.520;2023-08-30T02:10:52;100882.03;;;14.22;100.00
76632;BME280;65526;48.578;-4.520;2023-08-30T02:13:25;100500.28;;;11.94;100.00
76632;BME280;65526;48.578;-4.520;2023-08-30T02:15:55;100414.88;;;11.28;100.00
76632;BME280;65526;48.578;-4.520;2023-08-30T02:18:24;100806.44;;;13.93;100.00
76632;BME280;65526;48.578;-4.520;2023-08-30T02:20:53;100688.22;;;12.85;100.00
76632;BME280;65526;48.578;-4.520;2023-08-30T02:23:25;100996.50;;;14.96;100.00
76632;BME280;65526;48.578;-4.520;2023-08-30T02:25:54;100528.84;;;12.25;100.00
76632;BME280;65526;48.578;-4.520;2023-08-30T02:28:20;100686.28;;;13.28;100.00
76632;BME280;65526;48.578;-4.520;2023-08-30T02:30:47;100730.72;;;13.36;100.00
76632;BME280;65526;48.578;-4.520;2023-08-30T02:33:16;100470.16;;;11.99;100.00
76632;BME280;65526;48.578;-4.520;2023-08-30T02:35:44;101048.44;;;15.16;100.00
76632;BME280;65526;48.578;-4.520;2023-08-30T02:38:11;100964.06;;;15.18;100.00
76632;BME280;65526;48.578;-4.520;2023-08-30T02:40:37;100271.66;;;10.67;100.00
76632;BME280;65526;48.578;-4.520;2023-08-30T02:43:04;100752.84;;;13.87;100.00
76632;BME280;65526;48.578;-4.520;2023-08-30T02:45:30;101026.16;;;15.23;100.00
76632;BME280;65526;48.578;-4.520;2023-08-30T02:47:57;100223.75;;;10.55;100.00
76632;BME280;65526;48.578;-4.520;2023-08-30T02:50:24;100557.28;;;12.35;100.00
76632;BME280;65526;48.578;-4.520;2023-08-30T02:52:51;100528.53;;;12.50;100.00
76632;BME280;65526;48.578;-4.520;2023-08-30T02:55:18;100517.97;;;12.01;100.00
76632;BME280;65526;48.578;-4.520;2023-08-30T02:57:45;100713.81;;;13.48;100.00
76632;BME280;65526;48.578;-4.520;2023-08-30T03:00:13;101010.84;;;15.17;100.00
76632;BME280;65526;48.578;-4.520;2023-08-30T03:02:39;101018.06;;;15.18;100.00
76632;BME280;65526;48.578;-4.520;2023-08-30T03:05:06;100377.72;;;11.20;100.00
76632;BME280;65526;48.578;-4.520;2023-08-30T03:07:33;100764.44;;;13.66;100.00
76632;BME280;65526;48.578;-4.520;2023-08-30T03:09:59;100966.06;;;15.17;100.00
76632;BME280;65526;48.578;-4.520;2023-08-30T03:12:26;101062.00;;;15.14;100.00
76632;BME280;65526;48.578;-4.520;2023-08-30T03:14:54;100716.56;;;13.45;100.00
76632;BME280;65526;48.578;-4.520;2023-08-30T03:17:20;100362.91;;;10.81;100.00
76632;BME280;65526;48.578;-4.520;2023-08-30T03:19:47;100679.19;;;12.92;100.00
76632;BME280;65526;48.578;-4.520;2023-08-30T03:22:13;100216.88;;;10.17;100.00
76632;BME280;65526;48.578;-4.520;2023-08-30T03:24:40;100744.25;;;13.34;100.00
76632;BME280;65526;48.578;-4.520;2023-08-30T03:27:06;100965.41;;;15.01;100.00
76632;BME280;65526;48.578;-4.520;2023-08-30T03:29:33;100689.94;;;12.93;100.00
76632;BME280;65526;48.578;-4.520;2023-08-30T03:31:59;100965.28;;;14.94;100.00
76632;BME280;65526;48.578;-4.520;2023-08-30T03:34:26;100303.34;;;10.47;100.00
76632;BME280;65526;48.578;-4.520;2023-08-30T03:36:52;100987.97;;;14.89;100.00
76632;BME280;65526;48.578;-4.520;2023-08-30T03:39:21;101001.91;;;14.85;100.00
76632;BME280;65526;48.578;-4.520;2023-08-30T03:41:47;100570.69;;;12.10;100.00
76632;BME280;65526;48.578;-4.520;2023-08-30T03:44:14;100634.97;;;12.55;100.00
76632;BME280;65526;48.578;-4.520;2023-08-30T03:46:41;101014.22;;;14.81;100.00
76632;BME280;65526;48.578;-4.520;2023-08-30T03:49:07;100614.94;;;12.30;100.00
76632;BME280;65526;48.578;-4.520;2023-08-30T03:51:34;100978.94;;;14.76;100.00
76632;BME280;65526;48.578;-4.520;2023-08-30T03:54:00;100538.47;;;11.93;100.00
76632;BME280;65526;48.578;-4.520;2023-08-30T03:56:27;100441.66;;;11.51;100.00
76632;BME280;65526;48.578;-4.520;2023-08-30T03:58:53;100687.59;;;12.76;100.00
76632;BME280;65526;48.578;-4.520;2023-08-30T04:01:20;100490.69;;;11.91;100.00
76632;BME280;65526;48.578;-4.520;2023-08-30T04:03:47;100782.94;;;13.55;100.00
76632;BME280;65526;48.578;-4.520;2023-08-30T04:06:13;100948.34;;;14.64;100.00
76632;BME280;65526;48.578;-4.520;2023-08-30T04:08:40;100615.97;;;12.42;100.00
76632;BME280;65526;48.578;-4.520;2023-08-30T04:11:06;100966.25;;;14.59;100.00
76632;BME280;65526;48.578;-4.520;2023-08-30T04:13:32;100538.34;;;11.55;100.00
76632;BME280;65526;48.578;-4.520;2023-08-30T04:16:03;100362.03;;;10.46;100.00
76632;BME280;65526;48.578;-4.520;2023-08-30T04:18:30;101039.31;;;14.54;100.00
76632;BME280;65526;48.578;-4.520;2023-08-30T04:20:59;100744.25;;;12.80;100.00
76632;BME280;65526;48.578;-4.520;2023-08-30T04:23:29;100566.44;;;11.81;100.00
76632;BME280;65526;48.578;-4.520;2023-08-30T04:25:55;100462.00;;;11.21;100.00
76632;BME280;65526;48.578;-4.520;2023-08-30T04:28:22;100839.31;;;13.80;100.00
76632;BME280;65526;48.578;-4.520;2023-08-30T04:30:48;100589.59;;;11.69;100.00
76632;BME280;65526;48.578;-4.520;2023-08-30T04:33:15;100948.03;;;14.46;100.00
76632;BME280;65526;48.578;-4.520;2023-08-30T04:35:41;100238.81;;;9.91;100.00
76632;BME280;65526;48.578;-4.520;2023-08-30T04:38:08;100719.31;;;13.06;100.00
76632;BME280;65526;48.578;-4.520;2023-08-30T04:40:34;100621.53;;;12.07;100.00
76632;BME280;65526;48.578;-4.520;2023-08-30T04:43:02;100937.94;;;14.42;100.00
76632;BME280;65526;48.578;-4.520;2023-08-30T04:45:28;100963.88;;;14.39;100.00
76632;BME280;65526;48.578;-4.520;2023-08-30T04:47:55;100955.00;;;14.37;100.00
76632;BME280;65526;48.578;-4.520;2023-08-30T04:50:22;101011.75;;;14.37;100.00
76632;BME280;65526;48.578;-4.520;2023-08-30T04:52:48;100168.88;;;9.54;100.00
76632;BME280;65526;48.578;-4.520;2023-08-30T04:55:15;100560.78;;;11.62;100.00
76632;BME280;65526;48.578;-4.520;2023-08-30T04:57:41;100933.97;;;14.43;100.00
76632;BME280;65526;48.578;-4.520;2023-08-30T05:00:14;100628.94;;;12.53;100.00
76632;BME280;65526;48.578;-4.520;2023-08-30T05:02:40;100151.69;;;9.48;100.00
76632;BME280;65526;48.578;-4.520;2023-08-30T05:05:11;100458.94;;;11.26;100.00
76632;BME280;65526;48.578;-4.520;2023-08-30T05:07:37;100651.69;;;12.36;100.00
76632;BME280;65526;48.578;-4.520;2023-08-30T05:10:05;100682.03;;;12.76;100.00
76632;BME280;65526;48.578;-4.520;2023-08-30T05:12:35;100605.72;;;12.11;100.00
76632;BME280;65526;48.578;-4.520;2023-08-30T05:15:02;100938.34;;;14.40;100.00
76632;BME280;65526;48.578;-4.520;2023-08-30T05:17:30;100744.31;;;12.99;100.00
76632;BME280;65526;48.578;-4.520;2023-08-30T05:19:58;100723.31;;;13.05;100.00
76632;BME280;65526;48.578;-4.520;2023-08-30T05:22:24;100421.13;;;10.90;100.00
76632;BME280;65526;48.578;-4.520;2023-08-30T05:24:51;100436.31;;;11.27;100.00
76632;BME280;65526;48.578;-4.520;2023-08-30T05:27:17;100524.75;;;11.69;100.00
76632;BME280;65526;48.578;-4.520;2023-08-30T05:29:44;100945.81;;;14.36;100.00
76632;BME280;65526;48.578;-4.520;2023-08-30T05:32:11;100472.47;;;11.27;100.00
76632;BME280;65526;48.578;-4.520;2023-08-30T05:35:13;100707.06;;;12.92;100.00
76632;BME280;65526;48.578;-4.520;2023-08-30T05:37:53;100722.44;;;12.66;100.00
76632;BME280;65526;48.578;-4.520;2023-08-30T05:40:38;100659.84;;;12.45;100.00
76632;BME280;65526;48.578;-4.520;2023-08-30T05:43:08;100666.88;;;12.39;100.00
76632;BME280;65526;48.578;-4.520;2023-08-30T05:45:35;100746.03;;;12.53;100.00
76632;BME280;65526;48.578;-4.520;2023-08-30T05:48:01;100992.19;;;14.18;100.00
76632;BME280;65526;48.578;-4.520;2023-08-30T05:50:29;100964.69;;;14.20;100.00
76632;BME280;65526;48.578;-4.520;2023-08-30T05:52:56;100968.56;;;14.15;100.00
76632;BME280;65526;48.578;-4.520;2023-08-30T05:55:23;100960.47;;;14.10;100.00
76632;BME280;65526;48.578;-4.520;2023-08-30T05:57:49;100340.91;;;10.13;100.00
76632;BME280;65526;48.578;-4.520;2023-08-30T06:00:16;100958.69;;;14.02;100.00
76632;BME280;65526;48.578;-4.520;2023-08-30T06:02:42;100508.47;;;11.20;100.00
76632;BME280;65526;48.578;-4.520;2023-08-30T06:05:09;100979.06;;;14.03;100.00
76632;BME280;65526;48.578;-4.520;2023-08-30T06:07:35;100791.97;;;13.10;100.00
76632;BME280;65526;48.578;-4.520;2023-08-30T06:10:02;100596.78;;;11.39;100.00
76632;BME280;65526;48.578;-4.520;2023-08-30T06:12:28;100442.91;;;10.56;100.00
76632;BME280;65526;48.578;-4.520;2023-08-30T06:14:55;101024.66;;;13.87;100.00
76632;BME280;65526;48.578;-4.520;2023-08-30T06:17:21;100493.56;;;10.81;100.00
76632;BME280;65526;48.578;-4.520;2023-08-30T06:19:48;100938.84;;;13.88;100.00
76632;BME280;65526;48.578;-4.520;2023-08-30T06:22:14;100702.38;;;12.26;100.00
76632;BME280;65526;48.578;-4.520;2023-08-30T06:24:41;101004.31;;;13.87;100.00
76632;BME280;65526;48.578;-4.520;2023-08-30T06:27:07;101005.09;;;13.87;100.00
76632;BME280;65526;48.578;-4.520;2023-08-30T06:29:34;100154.06;;;8.91;100.00
76632;BME280;65526;48.578;-4.520;2023-08-30T06:32:02;100681.41;;;11.97;100.00
76632;BME280;65526;48.578;-4.520;2023-08-30T06:34:29;100444.63;;;10.77;100.00
76632;BME280;65526;48.578;-4.520;2023-08-30T06:36:56;100422.56;;;10.68;100.00
76632;BME280;65526;48.578;-4.520;2023-08-30T06:39:22;100994.00;;;13.91;100.00
76632;BME280;65526;48.578;-4.520;2023-08-30T06:41:49;100996.84;;;13.95;100.00
76632;BME280;65526;48.578;-4.520;2023-08-30T06:44:15;100952.59;;;13.97;100.00
76632;BME280;65526;48.578;-4.520;2023-08-30T06:46:43;101003.34;;;13.99;100.00
76632;BME280;65526;48.578;-4.520;2023-08-30T06:49:09;100961.88;;;14.01;100.00
76632;BME280;65526;48.578;-4.520;2023-08-30T06:51:35;100701.84;;;12.20;100.00
76632;BME280;65526;48.578;-4.520;2023-08-30T06:54:02;100703.63;;;12.44;100.00
76632;BME280;65526;48.578;-4.520;2023-08-30T06:56:28;100463.88;;;10.69;100.00
76632;BME280;65526;48.578;-4.520;2023-08-30T06:58:55;101001.44;;;14.22;100.00
76632;BME280;65526;48.578;-4.520;2023-08-30T07:01:21;100361.03;;;9.94;100.00
76632;BME280;65526;48.578;-4.520;2023-08-30T07:03:47;100968.47;;;14.31;100.00
76632;BME280;65526;48.578;-4.520;2023-08-30T07:06:14;100814.91;;;13.19;100.00
76632;BME280;65526;48.578;-4.520;2023-08-30T07:08:40;100615.91;;;12.03;100.00
76632;BME280;65526;48.578;-4.520;2023-08-30T07:11:06;100582.06;;;11.70;100.00
76632;BME280;65526;48.578;-4.520;2023-08-30T07:13:33;100939.38;;;14.13;100.00
76632;BME280;65526;48.578;-4.520;2023-08-30T07:15:59;100952.88;;;14.49;100.00
76632;BME280;65526;48.578;-4.520;2023-08-30T07:18:26;101011.34;;;14.54;100.00
76632;BME280;65526;48.578;-4.520;2023-08-30T07:20:52;100341.78;;;10.29;100.00
76632;BME280;65526;48.578;-4.520;2023-08-30T07:23:18;100728.44;;;13.03;100.00
76632;BME280;65526;48.578;-4.520;2023-08-30T07:25:45;100586.41;;;12.02;100.00
76632;BME280;65526;48.578;-4.520;2023-08-30T07:28:11;100428.47;;;11.48;100.00
76632;BME280;65526;48.578;-4.520;2023-08-30T07:30:38;100805.63;;;13.15;100.00
76632;BME280;65526;48.578;-4.520;2023-08-30T07:33:04;100578.69;;;12.30;100.00
76632;BME280;65526;48.578;-4.520;2023-08-30T07:35:31;100846.19;;;14.05;100.00
76632;BME280;65526;48.578;-4.520;2023-08-30T07:37:58;100731.97;;;13.58;100.00
76632;BME280;65526;48.578;-4.520;2023-08-30T07:40:25;100578.53;;;12.23;100.00
76632;BME280;65526;48.578;-4.520;2023-08-30T07:42:54;100973.03;;;15.27;100.00
76632;BME280;65526;48.578;-4.520;2023-08-30T07:45:21;100252.22;;;10.67;100.00
76632;BME280;65526;48.578;-4.520;2023-08-30T07:47:47;100741.66;;;13.64;100.00
76632;BME280;65526;48.578;-4.520;2023-08-30T07:50:14;100995.69;;;15.44;100.00
76632;BME280;65526;48.578;-4.520;2023-08-30T07:52:40;101042.31;;;15.56;100.00
76632;BME280;65526;48.578;-4.520;2023-08-30T07:55:07;100654.50;;;13.55;100.00
76632;BME280;65526;48.578;-4.520;2023-08-30T07:57:33;100444.53;;;11.90;100.00
76632;BME280;65526;48.578;-4.520;2023-08-30T08:00:00;100785.19;;;14.11;100.00
76632;BME280;65526;48.578;-4.520;2023-08-30T08:02:26;100616.38;;;13.40;100.00
76632;BME280;65526;48.578;-4.520;2023-08-30T08:04:53;100559.38;;;12.80;100.00
76632;BME280;65526;48.578;-4.520;2023-08-30T08:07:19;100693.34;;;14.09;100.00
76632;BME280;65526;48.578;-4.520;2023-08-30T08:09:45;100580.69;;;13.30;100.00
76632;BME280;65526;48.578;-4.520;2023-08-30T08:12:12;100546.72;;;13.05;100.00
76632;BME280;65526;48.578;-4.520;2023-08-30T08:14:38;100526.97;;;13.14;100.00
76632;BME280;65526;48.578;-4.520;2023-08-30T08:17:05;100885.41;;;15.26;100.00
76632;BME280;65526;48.578;-4.520;2023-08-30T08:19:31;100512.63;;;13.15;100.00
76632;BME280;65526;48.578;-4.520;2023-08-30T08:21:58;100990.72;;;16.13;100.00
76632;BME280;65526;48.578;-4.520;2023-08-30T08:24:24;100273.06;;;11.50;100.00
76632;BME280;65526;48.578;-4.520;2023-08-30T08:26:50;100794.13;;;14.92;100.00
76632;BME280;65526;48.578;-4.520;2023-08-30T08:29:17;100902.34;;;15.37;100.00
76632;BME280;65526;48.578;-4.520;2023-08-30T08:31:43;101003.72;;;16.29;100.00
76632;BME280;65526;48.578;-4.520;2023-08-30T08:34:11;100282.50;;;11.84;100.00
76632;BME280;65526;48.578;-4.520;2023-08-30T08:36:39;101004.22;;;16.38;100.00
76632;BME280;65526;48.578;-4.520;2023-08-30T08:39:06;100341.28;;;12.21;100.00
76632;BME280;65526;48.578;-4.520;2023-08-30T08:41:39;101072.88;;;16.47;100.00
76632;BME280;65526;48.578;-4.520;2023-08-30T08:44:06;100282.56;;;11.88;100.00
76632;BME280;65526;48.578;-4.520;2023-08-30T08:46:35;100825.03;;;14.99;100.00
76632;BME280;65526;48.578;-4.520;2023-08-30T08:49:13;100860.34;;;15.07;100.00
76632;BME280;65526;48.578;-4.520;2023-08-30T08:51:40;101059.31;;;16.53;100.00
76632;BME280;65526;48.578;-4.520;2023-08-30T08:54:09;100614.53;;;13.74;100.00
76632;BME280;65526;48.578;-4.520;2023-08-30T08:56:37;100825.53;;;15.34;100.00
76632;BME280;65526;48.578;-4.520;2023-08-30T08:59:04;100390.50;;;12.59;100.00
76632;BME280;65526;48.578;-4.520;2023-08-30T09:01:33;100827.88;;;15.32;100.00
76632;BME280;65526;48.578;-4.520;2023-08-30T09:04:06;100554.41;;;13.57;100.00
76632;BME280;65526;48.578;-4.520;2023-08-30T09:06:34;100543.50;;;13.48;100.00
76632;BME280;65526;48.578;-4.520;2023-08-30T09:09:04;101024.09;;;16.25;100.00
76632;BME280;65526;48.578;-4.520;2023-08-30T09:11:31;101025.66;;;16.53;100.00
76632;BME280;65526;48.578;-4.520;2023-08-30T09:13:58;100331.16;;;12.13;100.00
76632;BME280;65526;48.578;-4.520;2023-08-30T09:16:25;100332.72;;;12.11;100.00
76632;BME280;65526;48.578;-4.520;2023-08-30T09:19:02;101089.81;;;16.54;100.00
76632;BME280;65526;48.578;-4.520;2023-08-30T09:21:29;100874.56;;;15.51;100.00
76632;BME280;65526;48.578;-4.520;2023-08-30T09:23:59;100812.00;;;15.40;100.00
76632;BME280;65526;48.578;-4.520;2023-08-30T09:26:26;100297.81;;;12.17;100.00
76632;BME280;65526;48.578;-4.520;2023-08-30T09:28:55;101038.88;;;16.86;100.00
76632;BME280;65526;48.578;-4.520;2023-08-30T09:31:21;100813.53;;;15.37;100.00
76632;BME280;65526;48.578;-4.520;2023-08-30T09:33:48;100569.47;;;14.02;100.00
76632;BME280;65526;48.578;-4.520;2023-08-30T09:36:14;100348.41;;;12.64;100.00
76632;BME280;65526;48.578;-4.520;2023-08-30T09:38:47;100875.47;;;15.59;100.00
76632;BME280;65526;48.578;-4.520;2023-08-30T09:41:13;101004.72;;;16.80;100.00
76632;BME280;65526;48.578;-4.520;2023-08-30T09:43:44;100340.28;;;12.56;100.00
76632;BME280;65526;48.578;-4.520;2023-08-30T09:46:11;101085.28;;;17.10;100.00
76632;BME280;65526;48.578;-4.520;2023-08-30T09:48:38;101102.13;;;17.13;100.00
76632;BME280;65526;48.578;-4.520;2023-08-30T09:51:07;100891.94;;;15.94;100.00
76632;BME280;65526;48.578;-4.520;2023-08-30T09:53:40;101038.41;;;17.17;100.00
76632;BME280;65526;48.578;-4.520;2023-08-30T09:56:11;100855.09;;;16.32;100.00
76632;BME280;65526;48.578;-4.520;2023-08-30T09:58:40;100645.19;;;14.76;100.00
76632;BME280;65526;48.578;-4.520;2023-08-30T10:01:07;101034.53;;;17.36;100.00
76632;BME280;65526;48.578;-4.520;2023-08-30T10:03:35;101069.44;;;17.35;100.00
76632;BME280;65526;48.578;-4.520;2023-08-30T10:06:02;100400.28;;;13.44;100.00
76632;BME280;65526;48.578;-4.520;2023-08-30T10:08:31;101015.13;;;17.17;100.00
76632;BME280;65526;48.578;-4.520;2023-08-30T10:10:58;101046.84;;;17.21;100.00
76632;BME280;65526;48.578;-4.520;2023-08-30T10:13:25;100562.50;;;14.45;100.00
76632;BME280;65526;48.578;-4.520;2023-08-30T10:15:57;100646.81;;;15.10;100.00
76632;BME280;65526;48.578;-4.520;2023-08-30T10:18:25;100561.63;;;14.71;100.00
76632;BME280;65526;48.578;-4.520;2023-08-30T10:20:55;100621.69;;;15.17;100.00
76632;BME280;65526;48.578;-4.520;2023-08-30T10:23:23;100970.56;;;17.19;100.00
76632;BME280;65526;48.578;-4.520;2023-08-30T10:25:51;100796.00;;;16.11;99.91
76632;BME280;65526;48.578;-4.520;2023-08-30T10:28:19;101038.38;;;17.61;100.00
76632;BME280;65526;48.578;-4.520;2023-08-30T10:30:48;100750.41;;;15.77;100.00
76632;BME280;65526;48.578;-4.520;2023-08-30T10:33:15;100627.69;;;14.82;100.00
76632;BME280;65526;48.578;-4.520;2023-08-30T10:35:50;100814.56;;;16.22;100.00
76632;BME280;65526;48.578;-4.520;2023-08-30T10:38:28;100938.06;;;17.14;100.00
76632;BME280;65526;48.578;-4.520;2023-08-30T10:40:58;100624.59;;;14.91;99.96
76632;BME280;65526;48.578;-4.520;2023-08-30T10:43:34;101038.88;;;17.70;98.66
76632;BME280;65526;48.578;-4.520;2023-08-30T10:46:05;100850.94;;;16.59;99.62
76632;BME280;65526;48.578;-4.520;2023-08-30T10:48:38;100830.44;;;16.52;99.41
76632;BME280;65526;48.578;-4.520;2023-08-30T10:51:19;100387.97;;;13.79;97.25
76632;BME280;65526;48.578;-4.520;2023-08-30T10:53:59;100676.03;;;15.50;99.26
76632;BME280;65526;48.578;-4.520;2023-08-30T10:56:30;101033.41;;;17.99;99.96
76632;BME280;65526;48.578;-4.520;2023-08-30T10:58:58;100809.19;;;16.51;98.82
76632;BME280;65526;48.578;-4.520;2023-08-30T11:01:25;101046.25;;;18.00;97.30
76632;BME280;65526;48.578;-4.520;2023-08-30T11:03:53;100812.78;;;16.51;97.27
76632;BME280;65526;48.578;-4.520;2023-08-30T11:06:21;100819.41;;;16.73;97.50
76632;BME280;65526;48.578;-4.520;2023-08-30T11:08:47;100767.09;;;16.51;98.76
76632;BME280;65526;48.578;-4.520;2023-08-30T11:11:14;100513.94;;;14.97;96.71
76632;BME280;65526;48.578;-4.520;2023-08-30T11:13:41;100802.00;;;16.57;97.35
76632;BME280;65526;48.578;-4.520;2023-08-30T11:16:08;101023.41;;;18.05;97.27
76632;BME280;65526;48.578;-4.520;2023-08-30T11:18:39;101082.06;;;18.03;98.06
76632;BME280;65526;48.578;-4.520;2023-08-30T11:21:07;100798.56;;;16.74;98.03
76632;BME280;65526;48.578;-4.520;2023-08-30T11:23:35;101005.34;;;18.13;98.40
76632;BME280;65526;48.578;-4.520;2023-08-30T11:26:01;100318.16;;;13.79;97.91
76632;BME280;65526;48.578;-4.520;2023-08-30T11:28:30;100996.63;;;18.39;98.11
76632;BME280;65526;48.578;-4.520;2023-08-30T11:30:56;100782.22;;;16.90;96.62
76632;BME280;65526;48.578;-4.520;2023-08-30T11:33:22;100739.25;;;16.79;96.06
76632;BME280;65526;48.578;-4.520;2023-08-30T11:35:51;100574.34;;;15.86;96.39
76632;BME280;65526;48.578;-4.520;2023-08-30T11:38:19;100368.91;;;14.58;96.09
76632;BME280;65526;48.578;-4.520;2023-08-30T11:40:48;101029.63;;;18.53;96.03
76632;BME280;65526;48.578;-4.520;2023-08-30T11:43:15;100269.84;;;13.78;95.99
76632;BME280;65526;48.578;-4.520;2023-08-30T11:45:42;100628.88;;;15.99;95.35
76632;BME280;65526;48.578;-4.520;2023-08-30T11:48:08;100815.84;;;16.80;92.66
76632;BME280;65526;48.578;-4.520;2023-08-30T11:50:35;100465.69;;;14.33;92.94
76632;BME280;65526;48.578;-4.520;2023-08-30T11:53:02;100868.94;;;16.99;93.59
76632;BME280;65526;48.578;-4.520;2023-08-30T11:55:28;100653.56;;;15.83;94.54
76632;BME280;65526;48.578;-4.520;2023-08-30T11:57:55;101021.47;;;18.23;94.99
76632;BME280;65526;48.578;-4.520;2023-08-30T12:00:22;101106.28;;;18.25;95.11
76632;BME280;65526;48.578;-4.520;2023-08-30T12:02:48;100675.56;;;15.77;94.68
76632;BME280;65526;48.578;-4.520;2023-08-30T12:05:15;100593.25;;;15.52;93.05
76632;BME280;65526;48.578;-4.520;2023-08-30T12:07:41;100875.38;;;17.03;93.10
76632;BME280;65526;48.578;-4.520;2023-08-30T12:10:10;100442.91;;;14.35;93.51
76632;BME280;65526;48.578;-4.520;2023-08-30T12:12:36;101073.78;;;18.35;93.55
76632;BME280;65526;48.578;-4.520;2023-08-30T12:15:10;101041.63;;;18.39;91.11
76632;BME280;65526;48.578;-4.520;2023-08-30T12:17:37;100562.44;;;15.52;91.03
76632;BME280;65526;48.578;-4.520;2023-08-30T12:20:04;100784.66;;;16.92;93.12
76632;BME280;65526;48.578;-4.520;2023-08-30T12:22:40;100296.19;;;13.81;93.12
76632;BME280;65526;48.578;-4.520;2023-08-30T12:25:20;101007.16;;;18.56;92.73
76632;BME280;65526;48.578;-4.520;2023-08-30T12:27:47;100869.63;;;17.43;94.03
76632;BME280;65526;48.578;-4.520;2023-08-30T12:30:14;101034.16;;;18.72;93.91
76632;BME280;65526;48.578;-4.520;2023-08-30T12:32:45;100976.47;;;18.23;93.35
76632;BME280;65526;48.578;-4.520;2023-08-30T12:35:12;101001.56;;;18.67;93.29
76632;BME280;65526;48.578;-4.520;2023-08-30T12:37:39;100417.78;;;14.75;91.63